Lone Star, TX (75668)

9:18 AM CST on February 10, 2016 (GMT -0600)
Jenkins | | Change Station
CLOSE
Current Station
Personal Weather Station
Location: Daingerfield, TX
Elevation: 344 ft
Nearby Weather Stations
Active Advisory: Flood Warning

Elev 344 ft 32.96 °N, 94.74 °W | Updated 11 minutes ago

Clear
Clear
44.6 °F
Feels Like 45 °F
N
2.2
Wind Variable Wind from NW

Today
High -- | Low -- °F
--% Chance of Precip.
Yesterday
High -- | Low -- °F
Precip. -- in
Pressure 30.37 in
Visibility 10.0 miles
Clouds Clear
Windchill 45 °F
Dew Point 32 °F
Humidity 60%
Rainfall 0.00 in
Snow Depth Not available.
7:07 AM 5:59 PM
Waxing Crescent, 6% visible
METAR KOSA 101455Z AUTO 00000KT 10SM CLR 04/M03 A3037 RMK AO1 T00391033
Pressure 30.37 in
Visibility 10.0 miles
Clouds Clear
Windchill 45 °F
Dew Point 32 °F
Humidity 60%
Rainfall 0.00 in
Snow Depth Not available.
7:07 AM 5:59 PM
Waxing Crescent, 6% visible
METAR KOSA 101455Z AUTO 00000KT 10SM CLR 04/M03 A3037 RMK AO1 T00391033

10-Day Weather Forecast

Almanac

Astronomy

Feb. 10, 2016 Rise Set
Actual Time
Civil Twilight
Nautical Twilight
Astronomical Twilight
Moon
Length of Visible Light
Length of Day
Tomorrow will be .
, % of the Moon is Illuminated

Today's Extremes

State Highs State Lows

Community

WunderPhotos

Upload Photos

1,891,857 photos uploaded!

WunderBlog® & News

Nearby

Air Quality

  Air Quality AQ Index Pollutant
Not available.

Snow Depth

Station Depth Elevation

Earthquake Activity

City Distance Mag. Time & Date
Minimum magnitude displayed is 2.5.

Coastal Water Temperatures

Place Temperature

Stations

Nearby Weather Stations

Station Location Temp. Windchill Dew Point Humidity Wind Precip. Elev Updated Type
                   

Watches & Warnings

Flood Warning
Issued: 9:55 AM CST Feb. 9, 2016 – National Weather Service

The Flood Warning continues for
the Sulphur river near Naples, Texas.
* Until further notice... or until the warning is cancelled.
* At 630 am Tuesday the stage was 29.8 feet.
* Minor flooding is occurring and minor flooding is forecast.
* Flood stage is 22 feet.
* Forecast... the river will continue to fall to a stage of 29.5 feet
by Wednesday morning.
* Impact... at 30.0 feet... considerable lowland flooding and flooded
boat ramps.


Lat... Lon 3331 9466 3328 9456 3330 9447 3324 9462 3326 9466


Viii.